Time;durP1;ratioP1;P1;durP2;ratioP2;P2;SDS_P1;SDS_P2;PMS_P1;PMS_P2;Temp;Humidity;BMP_temperature;BMP_pressure;BME280_temperature;BME280_humidity;BME280_pressure;Samples;Min_cycle;Max_cycle;Signal;HPM_P1;HPM_P2
2024/04/09 00:12:21;;;;;;;8.20;3.83;;;;;;;16.54;100.00;100180.03;5461119;26;19998;-69
2024/04/09 00:15:09;;;;;;;15.10;3.75;;;;;;;16.55;100.00;100203.66;5486148;26;20010;-70
2024/04/09 00:18:11;;;;;;;8.93;3.65;;;;;;;16.57;100.00;100246.22;5452531;26;20338;-70
2024/04/09 00:20:59;;;;;;;10.52;3.75;;;;;;;16.57;100.00;100259.97;5454907;26;20006;-71
2024/04/09 00:23:48;;;;;;;15.35;4.07;;;;;;;16.57;100.00;100259.13;5463043;26;19998;-70
2024/04/09 00:26:37;;;;;;;9.32;3.40;;;;;;;16.56;100.00;100255.59;5488332;26;20009;-70
2024/04/09 00:29:25;;;;;;;11.65;3.90;;;;;;;16.55;100.00;100264.97;5459778;26;20033;-70
2024/04/09 00:32:13;;;;;;;10.73;3.50;;;;;;;16.54;100.00;100268.03;5464072;26;20039;-71
2024/04/09 00:35:03;;;;;;;8.80;3.63;;;;;;;16.46;100.00;100261.41;5468800;26;19999;-70
2024/04/09 00:37:52;;;;;;;10.35;3.78;;;;;;;16.38;100.00;100256.72;5439670;26;20377;-69
2024/04/09 00:40:42;;;;;;;11.20;3.80;;;;;;;16.34;100.00;100225.47;5434588;26;20002;-70
2024/04/09 00:43:31;;;;;;;7.30;3.33;;;;;;;16.32;100.00;100206.53;5401344;26;20434;-69
2024/04/09 00:46:19;;;;;;;8.88;3.22;;;;;;;16.32;100.00;100190.06;5471845;26;19999;-70
2024/04/09 00:49:08;;;;;;;10.02;3.58;;;;;;;16.33;100.00;100177.09;5452503;26;20006;-69
2024/04/09 00:51:56;;;;;;;11.35;3.65;;;;;;;16.29;100.00;100157.72;5437570;26;20018;-70
2024/04/09 00:54:45;;;;;;;10.18;3.60;;;;;;;16.26;100.00;100150.13;5403176;26;20556;-70
2024/04/09 00:57:33;;;;;;;9.40;3.30;;;;;;;16.29;100.00;100173.41;5440693;26;20013;-70
2024/04/09 01:00:22;;;;;;;8.88;3.13;;;;;;;16.29;100.00;100184.41;5386881;26;19999;-70
2024/04/09 01:03:10;;;;;;;9.57;3.22;;;;;;;16.31;100.00;100188.44;5464623;26;20047;-70
2024/04/09 01:05:59;;;;;;;7.57;3.30;;;;;;;16.28;100.00;100210.25;5459595;26;20012;-70
2024/04/09 01:08:47;;;;;;;7.18;3.35;;;;;;;16.26;100.00;100204.28;5481752;26;20074;-69
2024/04/09 01:11:35;;;;;;;10.57;3.40;;;;;;;16.26;100.00;100193.28;5518690;26;20028;-70
2024/04/09 01:14:25;;;;;;;7.82;3.10;;;;;;;16.23;100.00;100207.66;5493858;26;20061;-69
2024/04/09 01:17:16;;;;;;;10.75;3.38;;;;;;;16.17;100.00;100218.81;5488329;26;20034;-69
2024/04/09 01:20:07;;;;;;;10.10;2.90;;;;;;;16.19;100.00;100224.00;5491001;26;19998;-70
2024/04/09 01:22:55;;;;;;;5.00;2.67;;;;;;;16.21;100.00;100232.75;5522490;26;20011;-70
2024/04/09 01:25:43;;;;;;;7.68;3.03;;;;;;;16.21;100.00;100262.16;5515917;26;20326;-71
2024/04/09 01:28:32;;;;;;;6.80;2.58;;;;;;;16.18;100.00;100253.41;5470504;26;20409;-69
2024/04/09 01:31:22;;;;;;;8.60;2.70;;;;;;;16.13;100.00;100256.31;5443674;26;20012;-69
2024/04/09 01:34:11;;;;;;;5.55;2.40;;;;;;;16.09;100.00;100241.59;5520993;26;19993;-69
2024/04/09 01:37:00;;;;;;;7.20;2.50;;;;;;;16.06;100.00;100236.72;5521518;26;20061;-70
2024/04/09 01:39:49;;;;;;;7.45;2.80;;;;;;;16.03;100.00;100240.13;5521590;26;19997;-71
2024/04/09 01:42:38;;;;;;;4.18;2.10;;;;;;;16.02;100.00;100241.25;5494612;26;20009;-70
2024/04/09 01:45:26;;;;;;;6.45;2.40;;;;;;;16.05;100.00;100243.38;5466973;26;20013;-70
2024/04/09 01:48:14;;;;;;;4.78;2.60;;;;;;;16.06;100.00;100224.94;5527759;26;20012;-69
2024/04/09 01:51:09;;;;;;;8.40;2.70;;;;;;;16.04;100.00;100228.00;5504547;26;20460;-70
2024/04/09 01:53:57;;;;;;;10.27;3.00;;;;;;;15.98;100.00;100216.34;5499347;26;20517;-70
2024/04/09 01:56:45;;;;;;;8.80;3.10;;;;;;;15.95;100.00;100202.44;5499063;26;20001;-69
2024/04/09 01:59:33;;;;;;;7.15;2.50;;;;;;;15.92;100.00;100175.59;5503834;26;19998;-69
2024/04/09 02:02:21;;;;;;;5.75;2.70;;;;;;;15.92;100.00;100175.59;5498889;26;20006;-70
2024/04/09 02:05:12;;;;;;;10.23;3.08;;;;;;;15.94;100.00;100178.84;5475549;26;20407;-71
2024/04/09 02:08:00;;;;;;;11.43;2.78;;;;;;;15.94;100.00;100184.31;5470477;26;19998;-70
2024/04/09 02:10:50;;;;;;;7.68;3.08;;;;;;;15.92;100.00;100181.09;5444721;26;20025;-69
2024/04/09 02:13:41;;;;;;;5.10;2.42;;;;;;;15.96;100.00;100202.13;5468032;26;20329;-70
2024/04/09 02:16:30;;;;;;;7.50;2.78;;;;;;;16.01;100.00;100216.84;5466992;26;20025;-70
2024/04/09 02:19:18;;;;;;;4.88;2.20;;;;;;;16.03;100.00;100229.13;5496108;26;19998;-70
2024/04/09 02:22:07;;;;;;;6.50;2.55;;;;;;;16.01;100.00;100256.13;5470785;26;19994;-70
2024/04/09 02:24:55;;;;;;;10.73;3.03;;;;;;;16.02;100.00;100285.22;5479391;26;20009;-70
2024/04/09 02:27:43;;;;;;;8.10;3.30;;;;;;;16.00;100.00;100292.97;5520077;26;20012;-70
2024/04/09 02:30:33;;;;;;;6.13;2.60;;;;;;;15.99;100.00;100299.59;5513138;26;20014;-71
2024/04/09 02:33:22;;;;;;;7.82;3.13;;;;;;;15.98;100.00;100297.97;5519733;26;20013;-70
2024/04/09 02:36:11;;;;;;;8.85;2.65;;;;;;;15.96;100.00;100294.72;5486398;26;19997;-69
2024/04/09 02:38:59;;;;;;;11.40;2.83;;;;;;;15.95;100.00;100290.38;5460335;26;20022;-69
2024/04/09 02:41:48;;;;;;;4.63;2.30;;;;;;;15.92;100.00;100282.75;5448068;26;20030;-71
2024/04/09 02:44:36;;;;;;;5.90;2.00;;;;;;;15.89;100.00;100291.63;5505208;26;20008;-71
2024/04/09 02:47:24;;;;;;;7.10;2.47;;;;;;;15.87;100.00;100296.63;5417544;26;20337;-70
2024/04/09 02:50:15;;;;;;;4.78;2.15;;;;;;;15.86;100.00;100300.50;5491840;26;20009;-70
2024/04/09 02:53:04;;;;;;;6.95;2.50;;;;;;;15.84;100.00;100311.81;5488761;26;20006;-70
2024/04/09 02:56:08;;;;;;;6.38;2.40;;;;;;;15.83;100.00;100315.69;5452257;26;20078;-70
2024/04/09 02:58:56;;;;;;;7.45;2.40;;;;;;;15.82;100.00;100319.56;5514725;26;20437;-70
2024/04/09 03:01:45;;;;;;;5.93;2.22;;;;;;;15.82;100.00;100318.75;5429086;26;20042;-70
2024/04/09 03:04:33;;;;;;;4.15;2.10;;;;;;;15.80;100.00;100321.00;5511093;25;20006;-70
2024/04/09 03:07:21;;;;;;;8.82;2.55;;;;;;;15.77;100.00;100327.94;5495981;26;20026;-70
2024/04/09 03:10:13;;;;;;;7.45;2.70;;;;;;;15.74;100.00;100318.38;5520566;26;20002;-70
2024/04/09 03:13:02;;;;;;;7.32;2.58;;;;;;;15.72;100.00;100320.63;5464544;25;20063;-71
2024/04/09 03:15:50;;;;;;;9.88;3.22;;;;;;;15.72;100.00;100301.41;5474068;26;20446;-71
2024/04/09 03:18:38;;;;;;;7.32;3.10;;;;;;;15.71;100.00;100277.81;5522051;26;20005;-70
2024/04/09 03:21:26;;;;;;;6.80;3.00;;;;;;;15.70;100.00;100261.66;5469073;26;20070;-71
2024/04/09 03:24:15;;;;;;;6.75;3.40;;;;;;;15.70;100.00;100273.44;5512490;26;19997;-70
2024/04/09 03:27:03;;;;;;;8.60;4.07;;;;;;;15.68;100.00;100275.69;5518882;26;20074;-70
2024/04/09 03:29:51;;;;;;;6.72;3.22;;;;;;;15.69;100.00;100296.53;5490773;26;19997;-70
2024/04/09 03:32:39;;;;;;;7.53;3.72;;;;;;;15.68;100.00;100303.16;5515512;25;20336;-70
2024/04/09 03:35:27;;;;;;;8.80;4.10;;;;;;;15.68;100.00;100314.13;5489785;26;20002;-70
2024/04/09 03:38:15;;;;;;;11.13;4.18;;;;;;;15.64;100.00;100318.63;5471511;26;20454;-71
2024/04/09 03:41:05;;;;;;;10.40;3.67;;;;;;;15.65;100.00;100305.69;5522406;26;20017;-70
2024/04/09 03:43:54;;;;;;;9.20;4.00;;;;;;;15.64;100.00;100301.34;5503599;25;20017;-70
2024/04/09 03:46:42;;;;;;;9.52;4.35;;;;;;;15.63;100.00;100311.50;5466383;26;19993;-70
2024/04/09 03:49:36;;;;;;;9.30;4.45;;;;;;;15.63;100.00;100306.00;5492637;26;20029;-70
2024/04/09 03:52:25;;;;;;;8.50;4.03;;;;;;;15.63;100.00;100327.97;5495368;26;20406;-70
2024/04/09 03:55:13;;;;;;;10.40;4.47;;;;;;;15.62;100.00;100342.03;5517545;26;20001;-70
2024/04/09 03:58:01;;;;;;;7.25;4.03;;;;;;;15.61;100.00;100356.88;5511099;26;20030;-71
2024/04/09 04:00:59;;;;;;;7.72;4.13;;;;;;;15.61;100.00;100385.19;5488585;26;20001;-71
2024/04/09 04:03:49;;;;;;;11.40;4.65;;;;;;;15.62;100.00;100400.50;5450399;26;20058;-70
2024/04/09 04:06:38;;;;;;;7.32;3.97;;;;;;;15.60;100.00;100400.00;5459494;26;20002;-71
2024/04/09 04:09:26;;;;;;;7.57;4.15;;;;;;;15.58;100.00;100390.47;5497149;26;20318;-70
2024/04/09 04:12:14;;;;;;;10.30;4.88;;;;;;;15.54;100.00;100402.09;5519159;26;20084;-70
2024/04/09 04:15:02;;;;;;;7.63;4.05;;;;;;;15.53;100.00;100399.63;5486833;26;20015;-70
2024/04/09 04:17:50;;;;;;;8.88;4.18;;;;;;;15.48;100.00;100408.00;5471520;26;20009;-69
2024/04/09 04:20:38;;;;;;;8.55;4.43;;;;;;;15.45;100.00;100425.91;5472267;26;20011;-70
2024/04/09 04:23:27;;;;;;;8.95;3.50;;;;;;;15.41;100.00;100437.81;5485171;26;19993;-70
2024/04/09 04:26:26;;;;;;;5.72;3.35;;;;;;;15.40;100.00;100444.44;5447636;26;20326;-70
2024/04/09 04:29:14;;;;;;;7.53;3.00;;;;;;;15.36;100.00;100457.16;5501297;26;20065;-69
2024/04/09 04:32:02;;;;;;;7.55;3.38;;;;;;;15.26;100.00;100459.00;5510487;26;20002;-69
2024/04/09 04:34:52;;;;;;;5.72;3.28;;;;;;;15.22;100.00;100455.25;5473337;26;20001;-70
2024/04/09 04:37:40;;;;;;;5.55;2.90;;;;;;;15.21;100.00;100450.88;5480778;26;20013;-69
2024/04/09 04:40:28;;;;;;;6.07;2.65;;;;;;;15.16;100.00;100456.50;5513833;26;20359;-69
2024/04/09 04:43:17;;;;;;;6.15;2.45;;;;;;;15.13;100.00;100451.63;5454841;25;20322;-69
2024/04/09 04:46:05;;;;;;;4.85;2.33;;;;;;;15.13;100.00;100460.66;5471190;26;20438;-69
2024/04/09 04:48:53;;;;;;;4.43;1.92;;;;;;;15.18;100.00;100464.44;5494687;26;20325;-69
2024/04/09 04:51:41;;;;;;;5.00;2.67;;;;;;;15.17;100.00;100468.28;5501480;25;20354;-70
2024/04/09 04:54:30;;;;;;;7.03;2.63;;;;;;;15.16;100.00;100483.94;5514856;25;19997;-70
2024/04/09 04:57:22;;;;;;;5.13;2.40;;;;;;;15.18;100.00;100489.94;5496536;26;19997;-69
2024/04/09 05:00:11;;;;;;;3.78;2.28;;;;;;;15.18;100.00;100489.13;5520172;26;19994;-69
2024/04/09 05:02:59;;;;;;;8.13;2.55;;;;;;;15.11;100.00;100484.03;5464646;26;20449;-66
2024/04/09 05:05:48;;;;;;;6.25;2.60;;;;;;;15.09;100.00;100472.56;5493518;26;20341;-69
2024/04/09 05:08:36;;;;;;;7.68;2.47;;;;;;;15.02;100.00;100470.22;5468048;26;20009;-69
2024/04/09 05:11:25;;;;;;;7.75;2.35;;;;;;;15.01;100.00;100473.25;5495786;26;20069;-70
2024/04/09 05:14:15;;;;;;;6.75;2.42;;;;;;;14.99;100.00;100467.28;5501067;26;20012;-70
2024/04/09 05:17:05;;;;;;;4.90;2.20;;;;;;;15.02;100.00;100472.16;5488096;26;20398;-69
2024/04/09 05:19:53;;;;;;;7.18;2.20;;;;;;;15.05;100.00;100482.50;5470879;26;19997;-70
2024/04/09 05:22:44;;;;;;;5.13;2.33;;;;;;;15.04;100.00;100486.38;5521842;26;20327;-70
2024/04/09 05:25:33;;;;;;;7.63;2.53;;;;;;;15.04;100.00;100486.38;5525029;25;19998;-70
2024/04/09 05:28:22;;;;;;;3.92;2.15;;;;;;;15.02;100.00;100497.66;5424666;26;20357;-70
2024/04/09 05:31:10;;;;;;;4.93;2.50;;;;;;;14.99;100.00;100497.47;5509481;25;20005;-70
2024/04/09 05:33:59;;;;;;;5.85;2.40;;;;;;;14.96;100.00;100484.34;5509078;25;19992;-69
2024/04/09 05:36:49;;;;;;;7.40;2.40;;;;;;;14.96;100.00;100478.84;5439986;26;20010;-71
2024/04/09 05:39:37;;;;;;;6.47;2.65;;;;;;;15.01;100.00;100481.50;5520805;26;20011;-70
2024/04/09 05:42:26;;;;;;;8.82;2.47;;;;;;;14.95;100.00;100483.53;5492818;26;19998;-70
2024/04/09 05:45:20;;;;;;;5.53;2.47;;;;;;;15.00;100.00;100488.09;5507590;25;19997;-71
2024/04/09 05:48:10;;;;;;;5.82;2.22;;;;;;;14.97;100.00;100485.97;5491993;26;20465;-69
2024/04/09 05:50:59;;;;;;;9.00;3.05;;;;;;;15.02;100.00;100491.38;5500404;25;20192;-70
2024/04/09 05:53:48;;;;;;;6.00;2.67;;;;;;;14.96;100.00;100495.31;4736451;25;10001186;-70
2024/04/09 05:56:37;;;;;;;3.95;2.20;;;;;;;14.95;100.00;100494.50;5542107;25;20002;-71
2024/04/09 05:59:25;;;;;;;4.25;2.00;;;;;;;14.93;100.00;100512.41;5491888;26;20519;-71
2024/04/09 06:02:13;;;;;;;5.15;2.17;;;;;;;14.83;100.00;100508.72;5463030;26;20779;-70
2024/04/09 06:05:01;;;;;;;4.50;2.08;;;;;;;14.75;100.00;100509.44;5451748;26;20001;-69
2024/04/09 06:07:49;;;;;;;8.32;2.45;;;;;;;14.70;100.00;100510.34;5464836;26;20018;-71
2024/04/09 06:10:37;;;;;;;4.03;1.70;;;;;;;14.71;100.00;100511.16;5492996;26;20329;-71
2024/04/09 06:13:25;;;;;;;8.32;1.90;;;;;;;14.63;100.00;100522.84;5454963;26;19999;-71
2024/04/09 06:16:14;;;;;;;6.78;1.95;;;;;;;14.61;100.00;100522.34;5496380;26;20013;-72
2024/04/09 06:19:02;;;;;;;6.00;1.77;;;;;;;14.49;100.00;100526.34;5517699;26;20601;-70
2024/04/09 06:21:50;;;;;;;8.45;1.85;;;;;;;14.47;100.00;100509.38;5519586;26;20009;-70
2024/04/09 06:24:38;;;;;;;5.45;2.20;;;;;;;14.51;100.00;100522.50;5515422;26;20001;-71
2024/04/09 06:27:27;;;;;;;4.65;1.63;;;;;;;14.52;100.00;100526.84;5480657;26;20013;-70
2024/04/09 06:30:16;;;;;;;7.00;2.28;;;;;;;14.44;100.00;100539.31;5480501;26;20074;-71
2024/04/09 06:33:04;;;;;;;7.57;2.13;;;;;;;14.46;100.00;100548.88;5431191;26;20066;-70
2024/04/09 06:35:52;;;;;;;6.85;2.15;;;;;;;14.46;100.00;100542.59;5451227;25;20002;-70
2024/04/09 06:38:40;;;;;;;4.85;1.85;;;;;;;14.45;100.00;100544.50;5513410;26;20394;-70
2024/04/09 06:41:28;;;;;;;7.38;1.95;;;;;;;14.36;100.00;100565.50;5478342;26;20070;-71
2024/04/09 06:44:17;;;;;;;5.15;1.80;;;;;;;14.44;100.00;100570.28;5492559;26;20001;-71
2024/04/09 06:47:05;;;;;;;8.35;2.28;;;;;;;14.29;99.05;100567.81;5503297;26;20070;-71
2024/04/09 06:49:55;;;;;;;6.63;2.10;;;;;;;14.18;98.59;100583.59;5490441;26;20010;-72
2024/04/09 06:52:43;;;;;;;8.73;2.30;;;;;;;14.13;97.97;100582.88;5467835;26;20616;-71
2024/04/09 06:55:31;;;;;;;9.75;2.50;;;;;;;14.19;100.00;100592.63;5486163;26;20023;-70
2024/04/09 06:58:20;;;;;;;7.40;2.50;;;;;;;14.17;99.95;100589.38;5492013;26;20046;-71
2024/04/09 07:01:08;;;;;;;5.13;2.50;;;;;;;14.32;100.00;100575.44;5492592;26;20043;-71
2024/04/09 07:03:57;;;;;;;8.85;2.60;;;;;;;14.57;100.00;100578.88;5451303;26;20006;-71
2024/04/09 07:06:45;;;;;;;9.32;3.08;;;;;;;14.35;100.00;100591.25;5486148;26;20017;-69
2024/04/09 07:09:33;;;;;;;8.23;2.28;;;;;;;14.21;100.00;100604.09;5539497;25;20037;-71
2024/04/09 07:12:21;;;;;;;8.90;2.28;;;;;;;14.17;100.00;100605.81;5466665;26;20013;-71
2024/04/09 07:15:10;;;;;;;7.85;2.42;;;;;;;14.19;100.00;100615.38;5505697;25;20077;-69
2024/04/09 07:17:59;;;;;;;8.10;2.38;;;;;;;14.13;100.00;100616.56;5512409;26;20017;-71
2024/04/09 07:20:49;;;;;;;7.80;2.47;;;;;;;14.13;100.00;100626.69;5515961;26;20009;-69
2024/04/09 07:23:37;;;;;;;6.68;2.15;;;;;;;14.10;100.00;100624.56;5472764;26;20009;-70
2024/04/09 07:26:25;;;;;;;8.95;2.58;;;;;;;14.00;99.50;100618.13;5472550;26;20034;-70
2024/04/09 07:29:13;;;;;;;7.82;2.38;;;;;;;13.74;100.00;100617.66;5466914;26;20033;-72
2024/04/09 07:32:05;;;;;;;10.75;2.72;;;;;;;13.64;100.00;100610.38;5472255;26;20105;-72
2024/04/09 07:34:53;;;;;;;11.40;2.50;;;;;;;13.61;100.00;100610.97;5454182;25;20096;-72
2024/04/09 07:37:42;;;;;;;8.30;2.42;;;;;;;13.61;100.00;100615.63;5535655;25;20069;-70
2024/04/09 07:40:30;;;;;;;7.00;2.33;;;;;;;13.80;100.00;100618.38;5536584;25;20461;-71
2024/04/09 07:43:18;;;;;;;12.82;2.65;;;;;;;13.94;100.00;100613.81;5508113;26;19994;-70
2024/04/09 07:46:06;;;;;;;8.18;2.63;;;;;;;14.02;99.52;100609.59;5463900;26;20006;-70
2024/04/09 07:48:59;;;;;;;13.52;3.38;;;;;;;14.07;100.00;100617.75;5486381;26;20006;-70
2024/04/09 07:51:48;;;;;;;12.95;3.30;;;;;;;14.25;100.00;100608.69;5470191;26;20489;-70
2024/04/09 07:54:36;;;;;;;9.45;3.20;;;;;;;14.23;100.00;100616.38;5504840;25;20025;-70
2024/04/09 07:57:24;;;;;;;9.30;2.75;;;;;;;14.13;97.03;100621.22;5562689;25;20059;-69
2024/04/09 08:00:17;;;;;;;11.10;3.85;;;;;;;14.20;100.00;100618.91;5508699;25;20007;-72
2024/04/09 08:03:05;;;;;;;19.38;5.10;;;;;;;14.25;100.00;100625.13;5530390;25;20038;-70
2024/04/09 08:05:53;;;;;;;9.60;3.33;;;;;;;14.40;100.00;100621.34;5451999;25;20001;-70
2024/04/09 08:08:42;;;;;;;8.43;2.30;;;;;;;14.23;90.70;100632.84;5536967;25;20045;-71
2024/04/09 08:11:34;;;;;;;7.60;2.35;;;;;;;14.17;94.88;100649.66;5479716;26;20346;-71
2024/04/09 08:14:22;;;;;;;10.32;3.30;;;;;;;14.20;95.64;100655.34;5471774;25;20073;-73
2024/04/09 08:17:11;;;;;;;11.30;3.38;;;;;;;14.20;97.95;100662.78;5530624;25;20343;-70
2024/04/09 08:19:59;;;;;;;13.48;2.80;;;;;;;14.22;90.23;100668.78;5452784;26;19998;-71
2024/04/09 08:22:49;;;;;;;10.55;2.97;;;;;;;14.18;93.21;100675.94;5520708;26;19999;-71
2024/04/09 08:25:38;;;;;;;13.82;3.63;;;;;;;14.26;99.68;100691.72;5487577;26;19998;-71
2024/04/09 08:28:26;;;;;;;17.35;4.70;;;;;;;14.54;100.00;100689.97;5506011;25;20008;-71
2024/04/09 08:31:14;;;;;;;8.63;3.05;;;;;;;14.31;95.98;100702.63;5517817;25;19996;-72
2024/04/09 08:34:03;;;;;;;9.27;2.65;;;;;;;14.12;90.72;100712.72;5468215;26;20016;-71
2024/04/09 08:36:52;;;;;;;10.35;2.83;;;;;;;14.02;87.44;100713.69;5474043;26;20042;-70
2024/04/09 08:39:41;;;;;;;7.70;2.30;;;;;;;13.99;88.59;100726.03;5547160;25;20024;-69
2024/04/09 08:42:29;;;;;;;10.45;3.03;;;;;;;14.00;90.45;100733.16;5496106;26;20033;-70
2024/04/09 08:45:19;;;;;;;10.20;2.85;;;;;;;14.04;86.73;100739.69;5471121;26;20012;-69
2024/04/09 08:48:09;;;;;;;4.93;1.90;;;;;;;13.74;83.02;100745.53;5498485;26;20001;-71
2024/04/09 08:51:00;;;;;;;6.97;2.40;;;;;;;13.61;84.28;100738.81;5496686;26;20005;-70
2024/04/09 08:53:49;;;;;;;6.93;2.50;;;;;;;13.50;81.41;100745.53;5501011;26;20001;-70
2024/04/09 08:56:37;;;;;;;5.63;2.63;;;;;;;13.45;81.40;100754.59;5473580;26;20442;-70
2024/04/09 08:59:29;;;;;;;6.97;2.25;;;;;;;13.41;81.29;100769.97;5425888;26;20069;-70
2024/04/09 09:02:18;;;;;;;10.40;2.85;;;;;;;13.47;81.06;100773.44;5447626;26;20115;-70
2024/04/09 09:05:17;;;;;;;11.15;2.53;;;;;;;13.48;80.11;100775.91;5453049;26;20447;-73
2024/04/09 09:08:06;;;;;;;8.38;2.53;;;;;;;13.45;80.68;100773.75;5498109;26;20001;-71
2024/04/09 09:10:56;;;;;;;6.03;2.45;;;;;;;13.41;79.38;100759.00;5463921;26;20013;-71
2024/04/09 09:13:44;;;;;;;8.00;2.63;;;;;;;13.41;80.94;100764.47;5523923;25;20306;-71
2024/04/09 09:16:33;;;;;;;10.23;2.50;;;;;;;13.45;80.97;100757.34;5509107;25;19993;-72
2024/04/09 09:19:21;;;;;;;8.32;2.83;;;;;;;13.52;80.72;100759.75;5485854;25;20011;-72
2024/04/09 09:22:11;;;;;;;8.48;2.63;;;;;;;13.56;81.09;100761.59;5493892;26;20013;-72
2024/04/09 09:25:00;;;;;;;11.95;2.92;;;;;;;13.47;79.43;100759.75;5497597;26;20013;-71
2024/04/09 09:27:49;;;;;;;8.48;2.20;;;;;;;13.50;80.36;100756.47;5460307;26;20012;-71
2024/04/09 09:30:42;;;;;;;6.50;2.40;;;;;;;13.64;80.29;100763.72;5429973;25;20012;-72
2024/04/09 09:33:35;;;;;;;10.43;2.92;;;;;;;13.80;82.68;100777.22;5465914;26;20457;-72
2024/04/09 09:36:23;;;;;;;9.00;2.67;;;;;;;13.81;79.64;100773.41;5476184;26;19997;-71
2024/04/09 09:39:14;;;;;;;11.23;3.10;;;;;;;13.96;84.06;100775.94;5438969;25;20000;-72
2024/04/09 09:42:04;;;;;;;6.28;2.30;;;;;;;14.18;83.93;100771.84;5436071;26;20522;-72
2024/04/09 09:44:53;;;;;;;10.23;2.72;;;;;;;14.16;80.32;100769.41;5522470;25;19998;-71
2024/04/09 09:47:41;;;;;;;7.63;2.38;;;;;;;14.09;77.33;100773.59;5461080;26;20442;-71
2024/04/09 09:50:30;;;;;;;7.78;2.03;;;;;;;13.91;74.38;100767.78;5459758;25;20016;-70
2024/04/09 09:53:19;;;;;;;6.35;2.47;;;;;;;13.73;73.42;100776.75;5468978;26;20005;-70
2024/04/09 09:56:08;;;;;;;6.63;2.20;;;;;;;13.74;74.73;100775.66;5499930;26;20455;-71
2024/04/09 09:58:57;;;;;;;7.07;2.45;;;;;;;13.69;73.26;100783.94;5474927;26;20363;-71
2024/04/09 10:01:50;;;;;;;6.18;2.03;;;;;;;13.70;72.98;100788.28;5494066;26;20002;-71
2024/04/09 10:04:38;;;;;;;6.35;2.30;;;;;;;13.71;72.31;100795.38;5438553;26;19998;-71
2024/04/09 10:07:29;;;;;;;5.85;1.98;;;;;;;13.79;71.68;100794.78;5487064;26;20037;-71
2024/04/09 10:10:27;;;;;;;8.68;2.25;;;;;;;13.86;73.90;100795.25;5537825;25;20030;-72
2024/04/09 10:13:20;;;;;;;26.63;8.15;;;;;;;14.38;100.00;100793.53;5494142;26;20038;-71
2024/04/09 10:16:16;;;;;;;18.40;6.38;;;;;;;14.39;98.95;100800.63;5479561;26;19997;-71
2024/04/09 10:19:04;;;;;;;17.67;5.82;;;;;;;14.49;100.00;100784.03;5501264;25;20001;-72
2024/04/09 10:21:53;;;;;;;9.75;3.35;;;;;;;14.43;92.28;100793.47;5475114;26;20005;-72
2024/04/09 10:24:42;;;;;;;11.55;2.88;;;;;;;14.43;91.26;100801.69;5521312;26;20025;-72
2024/04/09 10:27:31;;;;;;;13.73;4.28;;;;;;;14.32;84.69;100800.19;4721008;26;10000418;-72
2024/04/09 10:30:27;;;;;;;9.23;3.08;;;;;;;14.31;82.54;100831.44;5513097;25;19996;-73
2024/04/09 10:33:15;;;;;;;11.77;3.50;;;;;;;14.31;88.54;100819.63;5482792;25;20007;-71
2024/04/09 10:36:05;;;;;;;10.13;3.60;;;;;;;14.50;99.33;100834.19;5463960;26;20424;-73
2024/04/09 10:38:54;;;;;;;11.25;3.05;;;;;;;14.68;100.00;100835.38;5449608;26;19997;-73
2024/04/09 10:41:50;;;;;;;15.25;5.50;;;;;;;14.87;100.00;100852.66;5486953;26;20021;-72
2024/04/09 10:44:39;;;;;;;18.88;6.53;;;;;;;15.01;100.00;100824.47;5434242;26;19998;-73
2024/04/09 10:47:27;;;;;;;12.60;3.80;;;;;;;14.93;100.00;100836.13;5485839;26;20006;-73
2024/04/09 10:50:16;;;;;;;10.55;3.58;;;;;;;14.84;100.00;100839.53;5509828;25;19998;-73
2024/04/09 10:53:04;;;;;;;10.90;2.67;;;;;;;14.54;87.86;100839.94;5458430;26;20016;-72
2024/04/09 10:56:02;;;;;;;8.88;3.33;;;;;;;14.56;100.00;100840.47;5466396;26;20005;-72
2024/04/09 10:58:50;;;;;;;12.30;4.28;;;;;;;14.79;100.00;100847.84;5500296;26;20005;-73
2024/04/09 11:01:40;;;;;;;11.82;4.55;;;;;;;14.90;100.00;100838.34;5513989;26;20005;-72
2024/04/09 11:04:29;;;;;;;13.73;4.65;;;;;;;15.05;100.00;100847.47;5532828;25;19997;-72
2024/04/09 11:07:18;;;;;;;8.77;2.80;;;;;;;14.89;95.54;100864.16;5559418;25;20325;-73
2024/04/09 11:10:12;;;;;;;8.48;2.38;;;;;;;14.62;80.11;100858.47;5526118;25;20025;-71
2024/04/09 11:13:01;;;;;;;13.18;3.95;;;;;;;14.68;98.81;100858.13;5425237;26;20010;-72
2024/04/09 11:15:49;;;;;;;8.77;2.42;;;;;;;14.71;94.04;100864.94;5457009;26;20031;-72
2024/04/09 11:18:37;;;;;;;10.15;3.28;;;;;;;14.76;100.00;100858.59;5459151;26;20798;-73
2024/04/09 11:21:30;;;;;;;7.65;2.53;;;;;;;14.93;100.00;100871.78;5425719;26;19998;-74
2024/04/09 11:24:18;;;;;;;7.50;2.20;;;;;;;14.91;95.21;100870.16;5372912;26;20068;-72
2024/04/09 11:27:07;;;;;;;6.05;1.98;;;;;;;14.59;78.03;100878.28;5456179;26;20006;-73
2024/04/09 11:29:55;;;;;;;8.45;2.20;;;;;;;14.42;72.94;100874.06;5466520;26;20002;-72
2024/04/09 11:32:43;;;;;;;7.60;2.15;;;;;;;14.30;72.63;100879.13;5470623;26;20521;-72
2024/04/09 11:35:32;;;;;;;4.45;1.67;;;;;;;14.37;72.94;100893.31;5422130;26;20463;-72
2024/04/09 11:38:21;;;;;;;7.28;2.13;;;;;;;14.43;74.02;100883.91;5513208;26;20062;-72
2024/04/09 11:41:10;;;;;;;12.70;3.67;;;;;;;14.71;100.00;100881.41;5409375;26;20002;-72
2024/04/09 11:44:01;;;;;;;6.07;2.15;;;;;;;14.57;82.95;100884.03;5482534;26;20314;-72
2024/04/09 11:46:50;;;;;;;8.52;3.33;;;;;;;14.72;96.77;100888.53;5483184;26;20036;-72
2024/04/09 11:49:38;;;;;;;7.63;2.28;;;;;;;14.73;90.02;100892.91;5448939;26;20005;-73
2024/04/09 11:52:26;;;;;;;10.90;4.13;;;;;;;14.86;100.00;100888.59;5483533;26;20306;-71
2024/04/09 11:55:14;;;;;;;6.25;2.10;;;;;;;14.80;94.90;100882.38;5434237;26;20070;-71
2024/04/09 11:58:05;;;;;;;10.05;3.08;;;;;;;14.81;100.00;100889.50;5435571;26;20074;-71
2024/04/09 12:00:55;;;;;;;8.32;2.80;;;;;;;14.67;95.74;100881.19;5459328;26;20012;-71
2024/04/09 12:03:44;;;;;;;9.75;3.33;;;;;;;14.79;100.00;100896.38;5490791;26;20016;-72
2024/04/09 12:06:32;;;;;;;10.30;3.05;;;;;;;14.74;100.00;100897.25;5470581;26;19994;-71
2024/04/09 12:09:20;;;;;;;9.10;3.63;;;;;;;15.00;100.00;100891.44;5407353;26;20006;-70
2024/04/09 12:12:09;;;;;;;9.30;2.70;;;;;;;14.82;100.00;100896.63;5452546;26;19998;-71
2024/04/09 12:14:58;;;;;;;7.72;2.80;;;;;;;14.78;100.00;100886.53;5480965;26;20025;-70
2024/04/09 12:17:46;;;;;;;9.48;3.55;;;;;;;14.96;100.00;100882.16;5451772;26;20372;-69
2024/04/09 12:20:34;;;;;;;7.85;2.88;;;;;;;14.88;100.00;100889.13;5482330;26;20002;-69
2024/04/09 12:23:23;;;;;;;13.57;3.72;;;;;;;15.02;100.00;100895.53;5491071;26;20066;-69
2024/04/09 12:26:11;;;;;;;7.25;2.70;;;;;;;14.75;86.45;100914.56;5515056;26;20440;-70
2024/04/09 12:28:59;;;;;;;6.72;2.50;;;;;;;14.66;100.00;100919.88;5447660;26;20408;-69
2024/04/09 12:31:48;;;;;;;11.57;2.60;;;;;;;14.71;97.05;100917.06;5462262;26;19998;-70
2024/04/09 12:34:36;;;;;;;11.80;3.42;;;;;;;14.72;100.00;100906.91;5481715;26;20027;-69
2024/04/09 12:37:25;;;;;;;11.07;3.95;;;;;;;15.07;100.00;100908.34;5480474;26;20458;-70
2024/04/09 12:40:13;;;;;;;5.47;2.28;;;;;;;14.69;100.00;100908.31;5456764;26;20008;-70
2024/04/09 12:43:04;;;;;;;7.78;2.63;;;;;;;14.92;100.00;100909.38;5420721;26;20017;-70
2024/04/09 12:45:52;;;;;;;8.50;2.40;;;;;;;14.75;93.46;100907.13;5450391;26;19998;-69
2024/04/09 12:48:40;;;;;;;6.55;1.92;;;;;;;14.73;86.86;100898.38;5481815;26;20445;-69
2024/04/09 12:51:30;;;;;;;6.53;2.22;;;;;;;14.74;100.00;100905.50;5480906;26;19998;-69
2024/04/09 12:54:18;;;;;;;6.60;2.72;;;;;;;14.82;100.00;100885.66;5407751;26;20003;-69
2024/04/09 12:57:06;;;;;;;9.50;3.20;;;;;;;14.88;100.00;100886.38;5444905;26;20014;-70
2024/04/09 12:59:55;;;;;;;9.10;3.10;;;;;;;15.05;100.00;100894.91;5469340;26;20010;-69
2024/04/09 13:03:04;;;;;;;9.00;2.97;;;;;;;14.85;97.72;100889.72;5434598;26;20041;-70
2024/04/09 13:05:52;;;;;;;4.70;1.92;;;;;;;14.68;88.35;100893.78;5468548;26;20001;-70
2024/04/09 13:08:41;;;;;;;4.25;1.67;;;;;;;14.55;88.67;100890.94;5493452;26;19997;-70